Sea Cloud — 9HOM2 — position and weather

sailwx.info

Track history (hours):
 
Tides and Currents Weather Stations Pressure Air Temp Water Temp Dewpoint Dewpoint Depression Visibility Wind Speed Wind Dir Waves Ship Positions

Sea Cloud

Ship's website: http://www.seacloud.com/en/the-ships/sea-cloud.html

Last reported at 2018-Sep-15 16:22 UTC. Time now 2018-Sep-22 07:05 UTC.
Position N 37°41' E 023°41'.

Length 110 m; draft 5.2 m.

Type: Ship. MMSI: 256084000.

Date/timePositionNaut miles runAvg speedWind from/ knotsBaromVisibWave heightAir tempDewpointWater temp
2018-Sep-15 16:22N 37°41' E 023°41'3 9.0
2018-Sep-15 16:04N 37°44' E 023°40'0 9.0
2018-Sep-15 16:01N 37°44' E 023°39'4 9.0
2018-Sep-15 15:30N 37°48' E 023°37'4 8.5
2018-Sep-15 15:04N 37°52' E 023°36'4 8.0
2018-Sep-15 14:30N 37°56' E 023°38'0 0.4
2018-Sep-15 14:00N 37°56' E 023°38'0 0.0
2018-Sep-15 13:24N 37°56' E 023°38'0 0.0
2018-Sep-15 13:00N 37°56' E 023°38'0 0.0
2018-Sep-15 12:30N 37°56' E 023°38'0 0.0
2018-Sep-15 12:00N 37°56' E 023°38'0 0.0
2018-Sep-15 11:29N 37°56' E 023°38'0 0.0
2018-Sep-15 11:00N 37°56' E 023°38'0 0.0
2018-Sep-15 10:30N 37°56' E 023°38'0 0.0
2018-Sep-15 10:00N 37°56' E 023°38'0 0.0
2018-Sep-15 09:30N 37°56' E 023°38'0 0.0
2018-Sep-15 09:00N 37°56' E 023°38'0 0.0
2018-Sep-15 08:30N 37°56' E 023°38'0 0.0
2018-Sep-15 08:00N 37°56' E 023°38'0 0.0
2018-Sep-15 07:30N 37°56' E 023°38'0 0.0
2018-Sep-15 06:59N 37°56' E 023°38'0 0.0
2018-Sep-15 06:30N 37°56' E 023°38'0 0.0
2018-Sep-15 06:03N 37°56' E 023°38'0 0.1
2018-Sep-15 06:00N 37°56' E 023°38'0 0.0
2018-Sep-15 05:30N 37°56' E 023°38'0 0.0
2018-Sep-15 05:03N 37°56' E 023°38'0 0.0
2018-Sep-15 05:00N 37°56' E 023°38'0 0.0
2018-Sep-15 04:30N 37°56' E 023°38'0 0.0
2018-Sep-15 04:02N 37°56' E 023°38'0 0.0
2018-Sep-15 04:00N 37°56' E 023°38'0 0.0
2018-Sep-15 03:30N 37°56' E 023°38'0 1.0
2018-Sep-15 03:03N 37°56' E 023°37'0 7.1
2018-Sep-15 03:00N 37°56' E 023°37'1 2.0
2018-Sep-15 02:31N 37°55' E 023°37'3 6.4
2018-Sep-15 02:03N 37°53' E 023°38'0 7.2
2018-Sep-15 02:00N 37°53' E 023°39'4 7.1
2018-Sep-15 01:30N 37°49' E 023°41'3 7.2
2018-Sep-15 01:03N 37°46' E 023°42'0 7.3
2018-Sep-15 01:00N 37°46' E 023°43'4 7.6
2018-Sep-15 00:27N 37°42' E 023°45'  
2018-Sep-11 13:28N 37°04' E 025°40'3 7.4
2018-Sep-11 13:03N 37°07' E 025°38'0 4.9
2018-Sep-11 13:00N 37°07' E 025°38'2 4.8
2018-Sep-11 12:30N 37°09' E 025°37'4 6.8
2018-Sep-11 11:59N 37°13' E 025°35'5 9.5
2018-Sep-11 11:30N 37°15' E 025°31'4 8.9
2018-Sep-11 11:03N 37°18' E 025°26'0 8.0
2018-Sep-11 11:00N 37°18' E 025°26'4 8.1
2018-Sep-11 10:30N 37°20' E 025°21'4 8.3
2018-Sep-11 10:03N 37°21' E 025°17'0 8.5
2018-Sep-11 10:00N 37°21' E 025°17'2 4.2
2018-Sep-11 09:30N 37°23' E 025°16'0 0.1
2018-Sep-11 09:00N 37°23' E 025°16'0 0.0
2018-Sep-11 08:30N 37°23' E 025°16'0 0.0
2018-Sep-11 08:02N 37°23' E 025°16'0 0.2
2018-Sep-11 08:00N 37°23' E 025°16'0 0.0
2018-Sep-11 07:30N 37°23' E 025°16'0 0.0
2018-Sep-11 07:02N 37°23' E 025°16'0 0.0
2018-Sep-11 07:00N 37°23' E 025°16'0 0.0
2018-Sep-11 06:30N 37°23' E 025°16'0 0.0
2018-Sep-11 06:02N 37°23' E 025°16'0 0.1
2018-Sep-11 05:56N 37°23' E 025°16'0 0.0
2018-Sep-11 05:30N 37°23' E 025°16'0 0.0
2018-Sep-11 05:03N 37°23' E 025°16'0 0.0
2018-Sep-11 04:54N 37°23' E 025°16'0 0.0
2018-Sep-11 04:30N 37°23' E 025°16'1 3.0
2018-Sep-11 04:03N 37°22' E 025°15'0 6.7
2018-Sep-11 04:00N 37°22' E 025°15'3 6.3
2018-Sep-11 03:30N 37°18' E 025°15'3 7.2
2018-Sep-11 03:04N 37°17' E 025°18'0 7.7
2018-Sep-11 03:01N 37°17' E 025°19'1 2.9
2018-Sep-11 02:31N 37°15' E 025°20'3 6.4
2018-Sep-11 02:04N 37°15' E 025°16'0 6.9
2018-Sep-11 02:00N 37°15' E 025°16'4 7.1
2018-Sep-11 01:31N 37°14' E 025°12'4 6.5
2018-Sep-11 00:58N 37°12' E 025°08'3 6.2
2018-Sep-11 00:31N 37°10' E 025°05'3 6.1
2018-Sep-11 00:03N 37°08' E 025°03'0 6.2
2018-Sep-11 00:00N 37°08' E 025°02'3 6.2
2018-Sep-10 23:31N 37°06' E 024°60'  
2018-Sep-08 17:04N 37°39' E 023°45'1 9.2
2018-Sep-08 17:00N 37°39' E 023°44'4 8.3
2018-Sep-08 16:30N 37°42' E 023°41'4 9.1
2018-Sep-08 16:03N 37°46' E 023°39'0 8.8
2018-Sep-08 16:00N 37°47' E 023°39'4 8.4
2018-Sep-08 15:30N 37°51' E 023°37'4 8.7
2018-Sep-08 15:03N 37°54' E 023°37'0 9.0
2018-Sep-08 15:00N 37°55' E 023°37'2 1.9
2018-Sep-08 14:02N 37°56' E 023°38'0 0.2
2018-Sep-08 14:00N 37°56' E 023°38'0 0.0
2018-Sep-08 13:30N 37°56' E 023°38'0 0.0
2018-Sep-08 13:02N 37°56' E 023°38'0 0.0
2018-Sep-08 12:54N 37°56' E 023°38'0 0.0
2018-Sep-08 12:30N 37°56' E 023°38'0 0.0
2018-Sep-08 12:02N 37°56' E 023°38'0 0.0
2018-Sep-08 11:56N 37°56' E 023°38'0 0.0
2018-Sep-08 11:30N 37°56' E 023°38'0 0.0
2018-Sep-08 11:02N 37°56' E 023°38'0 0.0
2018-Sep-08 11:00N 37°56' E 023°38'0 0.0
2018-Sep-08 10:30N 37°56' E 023°38'0 0.0
2018-Sep-08 10:02N 37°56' E 023°38'0 0.0
2018-Sep-08 10:00N 37°56' E 023°38'0 0.0
2018-Sep-08 09:30N 37°56' E 023°38'0 0.0
2018-Sep-08 09:02N 37°56' E 023°38'0 0.0
2018-Sep-08 09:00N 37°56' E 023°38'0 0.0
2018-Sep-08 08:30N 37°56' E 023°38'0 0.0
2018-Sep-08 08:02N 37°56' E 023°38'0 0.0
2018-Sep-08 08:00N 37°56' E 023°38'0 0.0
2018-Sep-08 07:30N 37°56' E 023°38'0 0.0
2018-Sep-08 07:03N 37°56' E 023°38'0 0.0
2018-Sep-08 07:00N 37°56' E 023°38'0 0.0
2018-Sep-08 06:30N 37°56' E 023°38'0 0.0
2018-Sep-08 06:03N 37°56' E 023°38'0 0.1
2018-Sep-08 06:00N 37°56' E 023°38'0 0.0
2018-Sep-08 05:30N 37°56' E 023°38'0 0.0
2018-Sep-08 05:03N 37°56' E 023°38'0 0.0
2018-Sep-08 05:00N 37°56' E 023°38'0 0.0
2018-Sep-08 04:30N 37°56' E 023°38'0 0.0
2018-Sep-08 04:03N 37°56' E 023°38'0 0.0
2018-Sep-08 04:00N 37°56' E 023°38'0 0.6
2018-Sep-08 03:30N 37°56' E 023°38'1 3.1
2018-Sep-08 03:03N 37°55' E 023°37'0 0.5
2018-Sep-08 03:00N 37°55' E 023°36'1 2.2
2018-Sep-08 02:31N 37°54' E 023°37'3 7.7
2018-Sep-08 02:03N 37°51' E 023°39'0 7.6
2018-Sep-08 02:00N 37°51' E 023°39'4 7.4
2018-Sep-08 01:30N 37°48' E 023°41'4 7.9
2018-Sep-08 01:03N 37°44' E 023°43'0 8.0
2018-Sep-08 01:00N 37°44' E 023°43'22 6.4
2018-Sep-07 21:29N 37°22' E 023°45'3 8.0
2018-Sep-07 21:03N 37°18' E 023°45'0 8.1
2018-Sep-07 21:00N 37°18' E 023°45'4 8.2
2018-Sep-07 20:28N 37°14' E 023°44'4 8.4
2018-Sep-07 20:03N 37°10' E 023°43'1 8.5
2018-Sep-07 19:59N 37°10' E 023°42'4 8.3
2018-Sep-07 19:30N 37°06' E 023°42'4 8.1
2018-Sep-07 19:03N 37°05' E 023°46'0 8.1
2018-Sep-07 19:00N 37°05' E 023°47'4 8.2
2018-Sep-07 18:29N 37°04' E 023°52'4 8.1
2018-Sep-07 17:56N 37°03' E 023°58'4 7.9
2018-Sep-07 17:27N 37°03' E 024°02'39 2.2
2018-Sep-07 00:00N 37°12' E 024°50'4 7.5
2018-Sep-06 23:30N 37°14' E 024°54'3 6.6
2018-Sep-06 23:03N 37°15' E 024°57'0 1.2
2018-Sep-06 23:00N 37°15' E 024°57'0 0.4
2018-Sep-06 22:30N 37°15' E 024°57'0 0.3
2018-Sep-06 22:03N 37°15' E 024°57'0 0.4
2018-Sep-06 22:00N 37°15' E 024°57'0 0.3
2018-Sep-06 21:30N 37°15' E 024°56'0 0.2
2018-Sep-06 21:03N 37°15' E 024°56'0 0.2
2018-Sep-06 21:00N 37°15' E 024°56'0 0.2
2018-Sep-06 20:30N 37°15' E 024°56'0 0.1
2018-Sep-06 20:03N 37°15' E 024°56'0 0.1
2018-Sep-06 20:00N 37°15' E 024°56'0 0.2
2018-Sep-06 19:30N 37°15' E 024°56'0 0.2
2018-Sep-06 19:03N 37°15' E 024°56'0 0.6
2018-Sep-06 19:01N 37°15' E 024°56'3 5.0
2018-Sep-06 18:30N 37°17' E 024°59'0 0.4
2018-Sep-06 18:03N 37°17' E 024°59'0 0.0
2018-Sep-06 18:01N 37°17' E 024°59'0 0.6
2018-Sep-06 17:31N 37°17' E 024°59'2 4.9
2018-Sep-06 17:03N 37°18' E 025°02'0 5.6
2018-Sep-06 17:00N 37°19' E 025°02'3 5.8
2018-Sep-06 16:30N 37°21' E 025°04'2 5.2
2018-Sep-06 16:03N 37°23' E 025°05'0 4.9
2018-Sep-06 16:00N 37°23' E 025°05'0 0.5
2018-Sep-06 15:30N 37°23' E 025°05'0 0.6
2018-Sep-06 15:03N 37°23' E 025°05'0 0.5
2018-Sep-06 14:59N 37°23' E 025°05'0 0.6
2018-Sep-06 14:30N 37°23' E 025°06'0 0.9
2018-Sep-06 14:01N 37°23' E 025°06'1 1.4
2018-Sep-06 13:30N 37°23' E 025°07'1 1.6
2018-Sep-06 13:03N 37°23' E 025°08'0 1.8
2018-Sep-06 13:00N 37°23' E 025°08'1 1.9
2018-Sep-06 12:30N 37°24' E 025°09'1 2.5
2018-Sep-06 12:03N 37°25' E 025°09'0 3.0
2018-Sep-06 12:01N 37°26' E 025°09'2 3.2
2018-Sep-06 11:31N 37°27' E 025°09'2 3.4
2018-Sep-06 11:04N 37°29' E 025°09'0 2.9
2018-Sep-06 11:00N 37°29' E 025°08'3 6.2
2018-Sep-06 10:30N 37°32' E 025°09'0 0.1
2018-Sep-06 09:58N 37°32' E 025°09'0 0.0
2018-Sep-06 09:25N 37°32' E 025°09'0 0.0
2018-Sep-06 09:01N 37°32' E 025°09'0 0.1
2018-Sep-06 08:58N 37°32' E 025°09'0 0.0
2018-Sep-06 08:28N 37°32' E 025°09'0 0.0
2018-Sep-06 07:58N 37°32' E 025°09'0 0.0
2018-Sep-06 07:28N 37°32' E 025°09'0 0.0
2018-Sep-06 06:46N 37°32' E 025°09'0 0.0
2018-Sep-06 06:19N 37°32' E 025°09'0 0.0
2018-Sep-06 06:01N 37°32' E 025°09'0 0.0
2018-Sep-06 05:58N 37°32' E 025°09'0 0.0
2018-Sep-06 05:25N 37°32' E 025°09'0 0.0
2018-Sep-06 05:01N 37°32' E 025°09'0 0.2
2018-Sep-06 04:58N 37°32' E 025°09'0 0.1
2018-Sep-06 04:22N 37°32' E 025°09'1 3.7
2018-Sep-06 04:03N 37°31' E 025°09'0 6.5
2018-Sep-06 04:00N 37°31' E 025°08'3 6.1
2018-Sep-06 03:30N 37°28' E 025°06'3 5.6
2018-Sep-06 03:03N 37°26' E 025°05'0 6.4
2018-Sep-06 03:00N 37°25' E 025°06'3 6.2
2018-Sep-06 02:27N 37°22' E 025°07'3 6.4
2018-Sep-06 02:03N 37°20' E 025°07'0 6.7
2018-Sep-06 02:00N 37°19' E 025°06'3 6.7
2018-Sep-06 01:30N 37°17' E 025°04'3 6.8
2018-Sep-06 01:03N 37°15' E 025°01'0 6.7
2018-Sep-06 01:00N 37°14' E 025°01'3 6.6
2018-Sep-06 00:31N 37°11' E 024°59'3 6.1
2018-Sep-06 00:03N 37°09' E 024°59'0 7.4
2018-Sep-06 00:00N 37°09' E 024°60'4 7.6
2018-Sep-05 23:30N 37°09' E 025°04'3 7.4
2018-Sep-05 23:03N 37°10' E 025°08'1 7.8
2018-Sep-05 22:58N 37°10' E 025°09'4 7.7
2018-Sep-05 22:29N 37°13' E 025°13'3 7.4
2018-Sep-05 22:04N 37°14' E 025°16'0 7.3
2018-Sep-05 22:00N 37°15' E 025°16'4 7.2
2018-Sep-05 21:30N 37°17' E 025°20'3 6.5
2018-Sep-05 21:03N 37°18' E 025°23'0 5.4
2018-Sep-05 21:00N 37°18' E 025°24'3 5.5
2018-Sep-05 20:30N 37°19' E 025°27'3 5.7
2018-Sep-05 20:03N 37°19' E 025°30'0 5.8
2018-Sep-05 20:01N 37°19' E 025°31'3 5.6
2018-Sep-05 19:31N 37°19' E 025°34'4 5.5
2018-Sep-05 18:48N 37°18' E 025°39'1 4.9
2018-Sep-05 18:30N 37°17' E 025°40'2 4.5
2018-Sep-05 18:03N 37°15' E 025°42'0 4.2
2018-Sep-05 18:01N 37°15' E 025°42'2 4.3
2018-Sep-05 17:31N 37°13' E 025°43'2 3.9
2018-Sep-05 17:03N 37°11' E 025°43'0 3.9
2018-Sep-05 17:01N 37°11' E 025°43'2 4.2
2018-Sep-05 16:30N 37°09' E 025°44'  
Track history (hours):
 
Tides and Currents Weather Stations Pressure Air Temp Water Temp Dewpoint Dewpoint Depression Visibility Wind Speed Wind Dir Waves Ship Positions

Sea Cloud

Ship's website: http://www.seacloud.com/en/the-ships/sea-cloud.html

Last reported at 2018-Sep-15 16:22 UTC. Time now 2018-Sep-22 07:05 UTC.
Position N 37°41' E 023°41'.

Length 110 m; draft 5.2 m.

Type: Ship. MMSI: 256084000.

Date/timePositionNaut miles runAvg speedWind from/ knotsBaromVisibWave heightAir tempDewpointWater temp
2018-Sep-15 16:22N 37°41' E 023°41'3 9.0
2018-Sep-15 16:04N 37°44' E 023°40'0 9.0
2018-Sep-15 16:01N 37°44' E 023°39'4 9.0
2018-Sep-15 15:30N 37°48' E 023°37'4 8.5
2018-Sep-15 15:04N 37°52' E 023°36'4 8.0
2018-Sep-15 14:30N 37°56' E 023°38'0 0.4
2018-Sep-15 14:00N 37°56' E 023°38'0 0.0
2018-Sep-15 13:24N 37°56' E 023°38'0 0.0
2018-Sep-15 13:00N 37°56' E 023°38'0 0.0
2018-Sep-15 12:30N 37°56' E 023°38'0 0.0
2018-Sep-15 12:00N 37°56' E 023°38'0 0.0
2018-Sep-15 11:29N 37°56' E 023°38'0 0.0
2018-Sep-15 11:00N 37°56' E 023°38'0 0.0
2018-Sep-15 10:30N 37°56' E 023°38'0 0.0
2018-Sep-15 10:00N 37°56' E 023°38'0 0.0
2018-Sep-15 09:30N 37°56' E 023°38'0 0.0
2018-Sep-15 09:00N 37°56' E 023°38'0 0.0
2018-Sep-15 08:30N 37°56' E 023°38'0 0.0
2018-Sep-15 08:00N 37°56' E 023°38'0 0.0
2018-Sep-15 07:30N 37°56' E 023°38'0 0.0
2018-Sep-15 06:59N 37°56' E 023°38'0 0.0
2018-Sep-15 06:30N 37°56' E 023°38'0 0.0
2018-Sep-15 06:03N 37°56' E 023°38'0 0.1
2018-Sep-15 06:00N 37°56' E 023°38'0 0.0
2018-Sep-15 05:30N 37°56' E 023°38'0 0.0
2018-Sep-15 05:03N 37°56' E 023°38'0 0.0
2018-Sep-15 05:00N 37°56' E 023°38'0 0.0
2018-Sep-15 04:30N 37°56' E 023°38'0 0.0
2018-Sep-15 04:02N 37°56' E 023°38'0 0.0
2018-Sep-15 04:00N 37°56' E 023°38'0 0.0
2018-Sep-15 03:30N 37°56' E 023°38'0 1.0
2018-Sep-15 03:03N 37°56' E 023°37'0 7.1
2018-Sep-15 03:00N 37°56' E 023°37'1 2.0
2018-Sep-15 02:31N 37°55' E 023°37'3 6.4
2018-Sep-15 02:03N 37°53' E 023°38'0 7.2
2018-Sep-15 02:00N 37°53' E 023°39'4 7.1
2018-Sep-15 01:30N 37°49' E 023°41'3 7.2
2018-Sep-15 01:03N 37°46' E 023°42'0 7.3
2018-Sep-15 01:00N 37°46' E 023°43'4 7.6
2018-Sep-15 00:27N 37°42' E 023°45'  
2018-Sep-11 13:28N 37°04' E 025°40'3 7.4
2018-Sep-11 13:03N 37°07' E 025°38'0 4.9
2018-Sep-11 13:00N 37°07' E 025°38'2 4.8
2018-Sep-11 12:30N 37°09' E 025°37'4 6.8
2018-Sep-11 11:59N 37°13' E 025°35'5 9.5
2018-Sep-11 11:30N 37°15' E 025°31'4 8.9
2018-Sep-11 11:03N 37°18' E 025°26'0 8.0
2018-Sep-11 11:00N 37°18' E 025°26'4 8.1
2018-Sep-11 10:30N 37°20' E 025°21'4 8.3
2018-Sep-11 10:03N 37°21' E 025°17'0 8.5
2018-Sep-11 10:00N 37°21' E 025°17'2 4.2
2018-Sep-11 09:30N 37°23' E 025°16'0 0.1
2018-Sep-11 09:00N 37°23' E 025°16'0 0.0
2018-Sep-11 08:30N 37°23' E 025°16'0 0.0
2018-Sep-11 08:02N 37°23' E 025°16'0 0.2
2018-Sep-11 08:00N 37°23' E 025°16'0 0.0
2018-Sep-11 07:30N 37°23' E 025°16'0 0.0
2018-Sep-11 07:02N 37°23' E 025°16'0 0.0
2018-Sep-11 07:00N 37°23' E 025°16'0 0.0
2018-Sep-11 06:30N 37°23' E 025°16'0 0.0
2018-Sep-11 06:02N 37°23' E 025°16'0 0.1
2018-Sep-11 05:56N 37°23' E 025°16'0 0.0
2018-Sep-11 05:30N 37°23' E 025°16'0 0.0
2018-Sep-11 05:03N 37°23' E 025°16'0 0.0
2018-Sep-11 04:54N 37°23' E 025°16'0 0.0
2018-Sep-11 04:30N 37°23' E 025°16'1 3.0
2018-Sep-11 04:03N 37°22' E 025°15'0 6.7
2018-Sep-11 04:00N 37°22' E 025°15'3 6.3
2018-Sep-11 03:30N 37°18' E 025°15'3 7.2
2018-Sep-11 03:04N 37°17' E 025°18'0 7.7
2018-Sep-11 03:01N 37°17' E 025°19'1 2.9
2018-Sep-11 02:31N 37°15' E 025°20'3 6.4
2018-Sep-11 02:04N 37°15' E 025°16'0 6.9
2018-Sep-11 02:00N 37°15' E 025°16'4 7.1
2018-Sep-11 01:31N 37°14' E 025°12'4 6.5
2018-Sep-11 00:58N 37°12' E 025°08'3 6.2
2018-Sep-11 00:31N 37°10' E 025°05'3 6.1
2018-Sep-11 00:03N 37°08' E 025°03'0 6.2
2018-Sep-11 00:00N 37°08' E 025°02'3 6.2
2018-Sep-10 23:31N 37°06' E 024°60'  
2018-Sep-08 17:04N 37°39' E 023°45'1 9.2
2018-Sep-08 17:00N 37°39' E 023°44'4 8.3
2018-Sep-08 16:30N 37°42' E 023°41'4 9.1
2018-Sep-08 16:03N 37°46' E 023°39'0 8.8
2018-Sep-08 16:00N 37°47' E 023°39'4 8.4
2018-Sep-08 15:30N 37°51' E 023°37'4 8.7
2018-Sep-08 15:03N 37°54' E 023°37'0 9.0
2018-Sep-08 15:00N 37°55' E 023°37'2 1.9
2018-Sep-08 14:02N 37°56' E 023°38'0 0.2
2018-Sep-08 14:00N 37°56' E 023°38'0 0.0
2018-Sep-08 13:30N 37°56' E 023°38'0 0.0
2018-Sep-08 13:02N 37°56' E 023°38'0 0.0
2018-Sep-08 12:54N 37°56' E 023°38'0 0.0
2018-Sep-08 12:30N 37°56' E 023°38'0 0.0
2018-Sep-08 12:02N 37°56' E 023°38'0 0.0
2018-Sep-08 11:56N 37°56' E 023°38'0 0.0
2018-Sep-08 11:30N 37°56' E 023°38'0 0.0
2018-Sep-08 11:02N 37°56' E 023°38'0 0.0
2018-Sep-08 11:00N 37°56' E 023°38'0 0.0
2018-Sep-08 10:30N 37°56' E 023°38'0 0.0
2018-Sep-08 10:02N 37°56' E 023°38'0 0.0
2018-Sep-08 10:00N 37°56' E 023°38'0 0.0
2018-Sep-08 09:30N 37°56' E 023°38'0 0.0
2018-Sep-08 09:02N 37°56' E 023°38'0 0.0
2018-Sep-08 09:00N 37°56' E 023°38'0 0.0
2018-Sep-08 08:30N 37°56' E 023°38'0 0.0
2018-Sep-08 08:02N 37°56' E 023°38'0 0.0
2018-Sep-08 08:00N 37°56' E 023°38'0 0.0
2018-Sep-08 07:30N 37°56' E 023°38'0 0.0
2018-Sep-08 07:03N 37°56' E 023°38'0 0.0
2018-Sep-08 07:00N 37°56' E 023°38'0 0.0
2018-Sep-08 06:30N 37°56' E 023°38'0 0.0
2018-Sep-08 06:03N 37°56' E 023°38'0 0.1
2018-Sep-08 06:00N 37°56' E 023°38'0 0.0
2018-Sep-08 05:30N 37°56' E 023°38'0 0.0
2018-Sep-08 05:03N 37°56' E 023°38'0 0.0
2018-Sep-08 05:00N 37°56' E 023°38'0 0.0
2018-Sep-08 04:30N 37°56' E 023°38'0 0.0
2018-Sep-08 04:03N 37°56' E 023°38'0 0.0
2018-Sep-08 04:00N 37°56' E 023°38'0 0.6
2018-Sep-08 03:30N 37°56' E 023°38'1 3.1
2018-Sep-08 03:03N 37°55' E 023°37'0 0.5
2018-Sep-08 03:00N 37°55' E 023°36'1 2.2
2018-Sep-08 02:31N 37°54' E 023°37'3 7.7
2018-Sep-08 02:03N 37°51' E 023°39'0 7.6
2018-Sep-08 02:00N 37°51' E 023°39'4 7.4
2018-Sep-08 01:30N 37°48' E 023°41'4 7.9
2018-Sep-08 01:03N 37°44' E 023°43'0 8.0
2018-Sep-08 01:00N 37°44' E 023°43'22 6.4
2018-Sep-07 21:29N 37°22' E 023°45'3 8.0
2018-Sep-07 21:03N 37°18' E 023°45'0 8.1
2018-Sep-07 21:00N 37°18' E 023°45'4 8.2
2018-Sep-07 20:28N 37°14' E 023°44'4 8.4
2018-Sep-07 20:03N 37°10' E 023°43'1 8.5
2018-Sep-07 19:59N 37°10' E 023°42'4 8.3
2018-Sep-07 19:30N 37°06' E 023°42'4 8.1
2018-Sep-07 19:03N 37°05' E 023°46'0 8.1
2018-Sep-07 19:00N 37°05' E 023°47'4 8.2
2018-Sep-07 18:29N 37°04' E 023°52'4 8.1
2018-Sep-07 17:56N 37°03' E 023°58'4 7.9
2018-Sep-07 17:27N 37°03' E 024°02'39 2.2
2018-Sep-07 00:00N 37°12' E 024°50'4 7.5
2018-Sep-06 23:30N 37°14' E 024°54'3 6.6
2018-Sep-06 23:03N 37°15' E 024°57'0 1.2
2018-Sep-06 23:00N 37°15' E 024°57'0 0.4
2018-Sep-06 22:30N 37°15' E 024°57'0 0.3
2018-Sep-06 22:03N 37°15' E 024°57'0 0.4
2018-Sep-06 22:00N 37°15' E 024°57'0 0.3
2018-Sep-06 21:30N 37°15' E 024°56'0 0.2
2018-Sep-06 21:03N 37°15' E 024°56'0 0.2
2018-Sep-06 21:00N 37°15' E 024°56'0 0.2
2018-Sep-06 20:30N 37°15' E 024°56'0 0.1
2018-Sep-06 20:03N 37°15' E 024°56'0 0.1
2018-Sep-06 20:00N 37°15' E 024°56'0 0.2
2018-Sep-06 19:30N 37°15' E 024°56'0 0.2
2018-Sep-06 19:03N 37°15' E 024°56'0 0.6
2018-Sep-06 19:01N 37°15' E 024°56'3 5.0
2018-Sep-06 18:30N 37°17' E 024°59'0 0.4
2018-Sep-06 18:03N 37°17' E 024°59'0 0.0
2018-Sep-06 18:01N 37°17' E 024°59'0 0.6
2018-Sep-06 17:31N 37°17' E 024°59'2 4.9
2018-Sep-06 17:03N 37°18' E 025°02'0 5.6
2018-Sep-06 17:00N 37°19' E 025°02'3 5.8
2018-Sep-06 16:30N 37°21' E 025°04'2 5.2
2018-Sep-06 16:03N 37°23' E 025°05'0 4.9
2018-Sep-06 16:00N 37°23' E 025°05'0 0.5
2018-Sep-06 15:30N 37°23' E 025°05'0 0.6
2018-Sep-06 15:03N 37°23' E 025°05'0 0.5
2018-Sep-06 14:59N 37°23' E 025°05'0 0.6
2018-Sep-06 14:30N 37°23' E 025°06'0 0.9
2018-Sep-06 14:01N 37°23' E 025°06'1 1.4
2018-Sep-06 13:30N 37°23' E 025°07'1 1.6
2018-Sep-06 13:03N 37°23' E 025°08'0 1.8
2018-Sep-06 13:00N 37°23' E 025°08'1 1.9
2018-Sep-06 12:30N 37°24' E 025°09'1 2.5
2018-Sep-06 12:03N 37°25' E 025°09'0 3.0
2018-Sep-06 12:01N 37°26' E 025°09'2 3.2
2018-Sep-06 11:31N 37°27' E 025°09'2 3.4
2018-Sep-06 11:04N 37°29' E 025°09'0 2.9
2018-Sep-06 11:00N 37°29' E 025°08'3 6.2
2018-Sep-06 10:30N 37°32' E 025°09'0 0.1
2018-Sep-06 09:58N 37°32' E 025°09'0 0.0
2018-Sep-06 09:25N 37°32' E 025°09'0 0.0
2018-Sep-06 09:01N 37°32' E 025°09'0 0.1
2018-Sep-06 08:58N 37°32' E 025°09'0 0.0
2018-Sep-06 08:28N 37°32' E 025°09'0 0.0
2018-Sep-06 07:58N 37°32' E 025°09'0 0.0
2018-Sep-06 07:28N 37°32' E 025°09'0 0.0
2018-Sep-06 06:46N 37°32' E 025°09'0 0.0
2018-Sep-06 06:19N 37°32' E 025°09'0 0.0
2018-Sep-06 06:01N 37°32' E 025°09'0 0.0
2018-Sep-06 05:58N 37°32' E 025°09'0 0.0
2018-Sep-06 05:25N 37°32' E 025°09'0 0.0
2018-Sep-06 05:01N 37°32' E 025°09'0 0.2
2018-Sep-06 04:58N 37°32' E 025°09'0 0.1
2018-Sep-06 04:22N 37°32' E 025°09'1 3.7
2018-Sep-06 04:03N 37°31' E 025°09'0 6.5
2018-Sep-06 04:00N 37°31' E 025°08'3 6.1
2018-Sep-06 03:30N 37°28' E 025°06'3 5.6
2018-Sep-06 03:03N 37°26' E 025°05'0 6.4
2018-Sep-06 03:00N 37°25' E 025°06'3 6.2
2018-Sep-06 02:27N 37°22' E 025°07'3 6.4
2018-Sep-06 02:03N 37°20' E 025°07'0 6.7
2018-Sep-06 02:00N 37°19' E 025°06'3 6.7
2018-Sep-06 01:30N 37°17' E 025°04'3 6.8
2018-Sep-06 01:03N 37°15' E 025°01'0 6.7
2018-Sep-06 01:00N 37°14' E 025°01'3 6.6
2018-Sep-06 00:31N 37°11' E 024°59'3 6.1
2018-Sep-06 00:03N 37°09' E 024°59'0 7.4
2018-Sep-06 00:00N 37°09' E 024°60'4 7.6
2018-Sep-05 23:30N 37°09' E 025°04'3 7.4
2018-Sep-05 23:03N 37°10' E 025°08'1 7.8
2018-Sep-05 22:58N 37°10' E 025°09'4 7.7
2018-Sep-05 22:29N 37°13' E 025°13'3 7.4
2018-Sep-05 22:04N 37°14' E 025°16'0 7.3
2018-Sep-05 22:00N 37°15' E 025°16'4 7.2
2018-Sep-05 21:30N 37°17' E 025°20'3 6.5
2018-Sep-05 21:03N 37°18' E 025°23'0 5.4
2018-Sep-05 21:00N 37°18' E 025°24'3 5.5
2018-Sep-05 20:30N 37°19' E 025°27'3 5.7
2018-Sep-05 20:03N 37°19' E 025°30'0 5.8
2018-Sep-05 20:01N 37°19' E 025°31'3 5.6
2018-Sep-05 19:31N 37°19' E 025°34'4 5.5
2018-Sep-05 18:48N 37°18' E 025°39'1 4.9
2018-Sep-05 18:30N 37°17' E 025°40'2 4.5
2018-Sep-05 18:03N 37°15' E 025°42'0 4.2
2018-Sep-05 18:01N 37°15' E 025°42'2 4.3
2018-Sep-05 17:31N 37°13' E 025°43'2 3.9
2018-Sep-05 17:03N 37°11' E 025°43'0 3.9
2018-Sep-05 17:01N 37°11' E 025°43'2 4.2
2018-Sep-05 16:30N 37°09' E 025°44'  

Dump ship's entire track history